KRBL/RBL METAR and TAF weather

Enter ICAO airport designator
Station Type Date Time Source
KRBL METAR 2020/09/19 17:54 UTC NOAA

KRBL 191754Z AUTO 02009KT 8SM CLR 26/10 A3002 RMK AO2 SLP162 T02560100 10256 20144 50001


Station Type Date Time Source
KRBL Decoded METAR 2020/09/19 17:54 UTC NOAA

RED BLUFF MUNICIPAL AIRPORT, CA, United States (KRBL) 40-09N 122-15W 104M
Sep 19, 2020 - 01:54 PM EDT / 2020.09.19 1754 UTC
Wind: from the NNE (020 degrees) at 10 MPH (9 KT):0
Visibility: 8 mile(s):0
Sky conditions: clear
Temperature: 78.1 F (25.6 C)
Dew Point: 50.0 F (10.0 C)
Relative Humidity: 37%
Pressure (altimeter): 30.02 in. Hg (1016 hPa)
Pressure tendency: 0.00 inches (0.1 hPa) higher than three hours ago
ob: KRBL 191754Z AUTO 02009KT 8SM CLR 26/10 A3002 RMK AO2 SLP162 T02560100 10256 20144 50001
cycle: 18

Station Type Date Time Source
KRBL TAF 2020/09/19 18:22 UTC NOAA

TAF KRBL 191720Z 1918/2018 36006KT P6SM SKC

Example: see airport list